Time;durP1;ratioP1;P1;durP2;ratioP2;P2;SDS_P1;SDS_P2;PMS_P1;PMS_P2;Temp;Humidity;BMP_temperature;BMP_pressure;BME280_temperature;BME280_humidity;BME280_pressure;Samples;Min_cycle;Max_cycle;Signal;HPM_P1;HPM_P2
2022/08/28 00:02:05;;;;;;;0.40;0.20;;;16.60;99.90;;;;;;5061271;28;20868;-75
2022/08/28 00:04:30;;;;;;;0.40;0.30;;;16.60;99.90;;;;;;5063893;28;20405;-75
2022/08/28 00:06:56;;;;;;;0.40;0.30;;;16.60;99.90;;;;;;5068920;28;20400;-75
2022/08/28 00:09:22;;;;;;;0.50;0.47;;;16.60;99.90;;;;;;5066606;28;20400;-75
2022/08/28 00:11:49;;;;;;;0.70;0.70;;;16.50;99.90;;;;;;5068033;28;20424;-75
2022/08/28 00:14:14;;;;;;;0.40;0.20;;;16.60;99.90;;;;;;5065863;28;20408;-75
2022/08/28 00:16:40;;;;;;;0.40;0.30;;;16.60;99.90;;;;;;5063750;28;20416;-75
2022/08/28 00:19:05;;;;;;;0.40;0.30;;;16.50;99.90;;;;;;5062525;28;20409;-75
2022/08/28 00:21:32;;;;;;;0.40;0.30;;;16.60;99.90;;;;;;5063802;28;20401;-75
2022/08/28 00:23:58;;;;;;;0.50;0.50;;;16.50;99.90;;;;;;5064244;28;20369;-75
2022/08/28 00:29:09;;;;;;;0.40;0.40;;;16.50;99.90;;;;;;5061481;28;20473;-75
2022/08/28 00:31:38;;;;;;;0.40;0.20;;;16.50;99.90;;;;;;5072880;28;20423;-75
2022/08/28 00:34:04;;;;;;;0.40;0.20;;;16.50;99.90;;;;;;5067141;28;20415;-75
2022/08/28 00:36:30;;;;;;;0.40;0.40;;;16.50;99.90;;;;;;5064664;28;20413;-75
2022/08/28 00:38:57;;;;;;;0.40;0.20;;;16.50;99.90;;;;;;5067876;28;20462;-75
2022/08/28 00:41:23;;;;;;;0.40;0.30;;;16.50;99.90;;;;;;5065238;28;20471;-75
2022/08/28 00:43:49;;;;;;;0.47;0.47;;;16.50;99.90;;;;;;5064477;28;20486;-76
2022/08/28 00:46:21;;;;;;;0.40;0.30;;;16.50;99.90;;;;;;5072207;28;20495;-75
2022/08/28 00:48:47;;;;;;;0.40;0.20;;;16.50;99.90;;;;;;5063499;28;20444;-75
2022/08/28 00:54:00;;;;;;;0.40;0.40;;;16.40;99.90;;;;;;5069935;28;20402;-76
2022/08/28 00:56:28;;;;;;;0.40;0.30;;;16.30;99.90;;;;;;5063690;28;21179;-75
2022/08/28 00:58:56;;;;;;;0.40;0.30;;;16.20;99.90;;;;;;5064299;28;20424;-75
2022/08/28 01:01:22;;;;;;;0.47;0.43;;;16.30;99.90;;;;;;5064212;28;20404;-75
2022/08/28 01:03:47;;;;;;;0.83;0.67;;;16.40;99.90;;;;;;5067297;28;20419;-76
2022/08/28 01:06:15;;;;;;;0.40;0.20;;;16.40;99.90;;;;;;5066893;28;20407;-75
2022/08/28 01:08:44;;;;;;;0.60;0.60;;;16.40;99.90;;;;;;5065063;28;20427;-76
2022/08/28 01:11:12;;;;;;;0.50;0.50;;;16.40;99.90;;;;;;5066745;28;20425;-76
2022/08/28 01:13:40;;;;;;;0.40;0.25;;;16.40;99.90;;;;;;5060250;28;20952;-76
2022/08/28 01:16:07;;;;;;;0.80;0.80;;;16.50;99.90;;;;;;5058062;28;20523;-75
2022/08/28 01:18:34;;;;;;;0.68;0.68;;;16.60;99.90;;;;;;5069034;28;20399;-75
2022/08/28 01:21:22;;;;;;;0.50;0.50;;;16.50;99.90;;;;;;5063211;28;20390;-76
2022/08/28 01:23:56;;;;;;;0.40;0.30;;;16.50;99.90;;;;;;5060456;28;20464;-75
2022/08/28 01:26:24;;;;;;;0.40;0.30;;;16.50;99.90;;;;;;5053982;28;20403;-76
2022/08/28 01:28:50;;;;;;;0.40;0.30;;;16.40;99.90;;;;;;5059927;28;20417;-75
2022/08/28 01:31:17;;;;;;;0.40;0.30;;;16.50;99.90;;;;;;5068425;28;20415;-75
2022/08/28 01:33:44;;;;;;;1.60;1.50;;;16.50;99.90;;;;;;5055469;28;20412;-76
2022/08/28 01:36:11;;;;;;;0.40;0.20;;;16.50;99.90;;;;;;5060669;28;20413;-75
2022/08/28 01:38:37;;;;;;;0.40;0.30;;;16.50;99.90;;;;;;5064166;28;20403;-75
2022/08/28 01:41:03;;;;;;;0.40;0.20;;;16.50;99.90;;;;;;5063447;28;20836;-76
2022/08/28 01:43:30;;;;;;;0.40;0.40;;;16.40;99.90;;;;;;5060550;28;20417;-76
2022/08/28 01:46:00;;;;;;;0.60;0.60;;;16.40;99.90;;;;;;5064902;28;20430;-75
2022/08/28 01:48:27;;;;;;;0.40;0.40;;;16.40;99.90;;;;;;5059385;28;20413;-75
2022/08/28 01:50:54;;;;;;;0.40;0.30;;;16.30;99.90;;;;;;5065893;28;20403;-75
2022/08/28 01:53:22;;;;;;;0.40;0.30;;;16.20;99.90;;;;;;5083799;28;20415;-75
2022/08/28 01:55:49;;;;;;;0.80;0.80;;;16.20;99.90;;;;;;5062564;28;20406;-75
2022/08/28 01:58:15;;;;;;;0.40;0.20;;;16.20;99.90;;;;;;5060378;28;20910;-75
2022/08/28 02:00:41;;;;;;;0.40;0.30;;;16.20;99.90;;;;;;5064920;28;20417;-76
2022/08/28 02:03:07;;;;;;;0.40;0.30;;;16.20;99.90;;;;;;5058260;28;20405;-76
2022/08/28 02:05:34;;;;;;;0.40;0.20;;;16.20;99.90;;;;;;5061863;28;20402;-75
2022/08/28 02:08:02;;;;;;;0.40;0.30;;;16.10;99.90;;;;;;5060514;28;20411;-75
2022/08/28 02:10:29;;;;;;;0.40;0.30;;;16.10;99.90;;;;;;5067440;28;20421;-75
2022/08/28 02:12:56;;;;;;;0.43;0.32;;;16.10;99.90;;;;;;5067464;28;20504;-75
2022/08/28 02:15:24;;;;;;;0.40;0.30;;;16.00;99.90;;;;;;5056630;28;20499;-75
2022/08/28 02:17:50;;;;;;;0.40;0.20;;;16.00;99.90;;;;;;5062418;28;20498;-76
2022/08/28 02:20:16;;;;;;;0.70;0.70;;;16.00;99.90;;;;;;5060065;28;20777;-76
2022/08/28 02:22:41;;;;;;;0.60;0.60;;;16.00;99.90;;;;;;5058383;28;20818;-75
2022/08/28 02:25:08;;;;;;;0.40;0.20;;;16.00;99.90;;;;;;5057919;28;20415;-75
2022/08/28 02:27:35;;;;;;;0.40;0.40;;;15.90;99.90;;;;;;5059485;28;20416;-75
2022/08/28 02:30:02;;;;;;;0.40;0.30;;;15.80;99.90;;;;;;5056839;28;20409;-76
2022/08/28 02:32:28;;;;;;;0.90;0.90;;;15.90;99.90;;;;;;5064039;28;20459;-75
2022/08/28 02:34:54;;;;;;;0.40;0.20;;;16.00;99.90;;;;;;5058500;28;20716;-76
2022/08/28 02:37:23;;;;;;;0.80;0.80;;;16.00;99.90;;;;;;5065203;28;20536;-76
2022/08/28 02:39:49;;;;;;;0.40;0.25;;;16.00;99.90;;;;;;5058395;28;20406;-75
2022/08/28 02:42:14;;;;;;;0.67;0.67;;;16.00;99.90;;;;;;5059731;28;20405;-75
2022/08/28 02:44:41;;;;;;;0.40;0.20;;;16.00;99.90;;;;;;5062030;28;20435;-75
2022/08/28 02:47:07;;;;;;;0.40;0.40;;;15.90;99.90;;;;;;5058673;28;20431;-75
2022/08/28 02:49:32;;;;;;;0.40;0.30;;;15.90;99.90;;;;;;5062596;28;20405;-75
2022/08/28 02:51:58;;;;;;;0.60;0.60;;;15.80;99.90;;;;;;5061788;28;20921;-75
2022/08/28 02:54:25;;;;;;;0.40;0.20;;;15.80;99.90;;;;;;5059649;28;20391;-75
2022/08/28 02:56:51;;;;;;;0.40;0.30;;;15.80;99.90;;;;;;5058214;28;20841;-75
2022/08/28 02:59:17;;;;;;;0.40;0.30;;;15.70;99.90;;;;;;5062390;28;20471;-75
2022/08/28 03:01:43;;;;;;;0.60;0.60;;;15.80;99.90;;;;;;5064444;28;20436;-75
2022/08/28 03:04:09;;;;;;;0.40;0.30;;;15.70;99.90;;;;;;5058021;28;20405;-75
2022/08/28 03:06:34;;;;;;;0.40;0.30;;;15.70;99.90;;;;;;5063593;28;20496;-75
2022/08/28 03:09:00;;;;;;;0.60;0.60;;;15.70;99.90;;;;;;5058126;28;20783;-76
2022/08/28 03:11:26;;;;;;;0.40;0.27;;;15.70;99.90;;;;;;5062454;28;20421;-75
2022/08/28 03:13:52;;;;;;;0.40;0.30;;;15.70;99.90;;;;;;5061055;28;20417;-75
2022/08/28 03:16:18;;;;;;;0.40;0.20;;;15.60;99.90;;;;;;5059182;28;20918;-75
2022/08/28 03:18:44;;;;;;;0.40;0.30;;;15.70;99.90;;;;;;5060934;28;20433;-76
2022/08/28 03:21:10;;;;;;;0.40;0.40;;;15.60;99.90;;;;;;5060415;28;20481;-75
2022/08/28 03:23:36;;;;;;;0.40;0.20;;;15.60;99.90;;;;;;5057728;28;20494;-75
2022/08/28 03:26:09;;;;;;;0.40;0.30;;;15.70;99.90;;;;;;5060749;28;20437;-76
2022/08/28 03:28:42;;;;;;;0.40;0.30;;;15.60;99.90;;;;;;5058542;28;20377;-75
2022/08/28 03:31:10;;;;;;;0.40;0.20;;;15.60;99.90;;;;;;5060639;28;20403;-75
2022/08/28 03:33:36;;;;;;;0.40;0.30;;;15.60;99.90;;;;;;5054384;28;20453;-76
2022/08/28 03:36:02;;;;;;;0.40;0.40;;;15.60;99.90;;;;;;5056620;28;20810;-76
2022/08/28 03:38:28;;;;;;;0.40;0.20;;;15.60;99.90;;;;;;5052617;28;20405;-75
2022/08/28 03:40:53;;;;;;;0.40;0.40;;;15.60;99.90;;;;;;5057356;28;20521;-75
2022/08/28 03:43:21;;;;;;;0.40;0.30;;;15.50;99.90;;;;;;5059784;28;20380;-75
2022/08/28 03:45:59;;;;;;;0.40;0.30;;;15.40;99.90;;;;;;5058073;28;20504;-75
2022/08/28 03:48:26;;;;;;;0.40;0.20;;;15.30;99.90;;;;;;5058437;28;20921;-75
2022/08/28 03:50:52;;;;;;;0.40;0.30;;;15.40;99.90;;;;;;5059074;28;20902;-76
2022/08/28 03:53:23;;;;;;;0.40;0.30;;;15.40;99.90;;;;;;5053941;28;20466;-75
2022/08/28 03:55:48;;;;;;;0.45;0.45;;;15.40;99.90;;;;;;5058160;28;20416;-75
2022/08/28 03:58:15;;;;;;;0.40;0.30;;;15.40;99.90;;;;;;5057872;28;20421;-75
2022/08/28 04:00:42;;;;;;;0.40;0.30;;;15.40;99.90;;;;;;5057400;28;20981;-76
2022/08/28 04:03:08;;;;;;;1.60;0.70;;;15.40;99.90;;;;;;5057321;28;20509;-76
2022/08/28 04:05:33;;;;;;;0.40;0.30;;;15.40;99.90;;;;;;5062856;28;20455;-76
2022/08/28 04:08:01;;;;;;;0.40;0.30;;;15.50;99.90;;;;;;5068432;28;20909;-75
2022/08/28 04:10:27;;;;;;;0.40;0.40;;;15.50;99.90;;;;;;5061516;28;20425;-75
2022/08/28 04:12:53;;;;;;;0.40;0.20;;;15.40;99.90;;;;;;5057107;28;20398;-75
2022/08/28 04:15:19;;;;;;;0.40;0.20;;;15.40;99.90;;;;;;5069994;28;20387;-76
2022/08/28 04:17:44;;;;;;;0.40;0.40;;;15.40;99.90;;;;;;5059911;28;20722;-75
2022/08/28 04:20:10;;;;;;;0.40;0.40;;;15.30;99.90;;;;;;5060901;28;20484;-76
2022/08/28 04:22:36;;;;;;;0.40;0.30;;;15.40;99.90;;;;;;5060288;28;20407;-75
2022/08/28 04:25:02;;;;;;;0.40;0.30;;;15.40;99.90;;;;;;5060715;28;20793;-75
2022/08/28 04:27:28;;;;;;;0.52;0.52;;;15.40;99.90;;;;;;5057908;28;20407;-75
2022/08/28 04:29:53;;;;;;;0.80;0.80;;;15.40;99.90;;;;;;5057801;28;20417;-76
2022/08/28 04:32:20;;;;;;;0.40;0.30;;;15.40;99.90;;;;;;5060633;28;20409;-76
2022/08/28 04:34:46;;;;;;;0.40;0.30;;;15.40;99.90;;;;;;5061611;28;20414;-76
2022/08/28 04:37:11;;;;;;;0.40;0.20;;;15.40;99.90;;;;;;5059702;28;20407;-76
2022/08/28 04:39:37;;;;;;;0.40;0.30;;;15.30;99.90;;;;;;5054572;28;20820;-75
2022/08/28 04:42:03;;;;;;;0.40;0.20;;;15.40;99.90;;;;;;5059382;28;20401;-75
2022/08/28 04:44:28;;;;;;;1.10;1.10;;;15.50;99.90;;;;;;5059702;28;20436;-76
2022/08/28 04:46:54;;;;;;;0.40;0.20;;;15.40;99.90;;;;;;5059180;28;20413;-75
2022/08/28 04:49:20;;;;;;;0.40;0.20;;;15.40;99.90;;;;;;5059045;28;20411;-76
2022/08/28 04:51:45;;;;;;;0.60;0.60;;;15.30;99.90;;;;;;5059251;28;20408;-75
2022/08/28 04:54:11;;;;;;;0.40;0.20;;;15.40;99.90;;;;;;5061246;28;20430;-75
2022/08/28 04:56:39;;;;;;;0.40;0.30;;;15.40;99.90;;;;;;5060543;28;20441;-76
2022/08/28 04:59:05;;;;;;;0.40;0.30;;;15.30;99.90;;;;;;5064053;28;20416;-76
2022/08/28 05:01:31;;;;;;;0.40;0.38;;;15.40;99.90;;;;;;5061511;28;20419;-76
2022/08/28 05:03:59;;;;;;;0.40;0.30;;;15.30;99.90;;;;;;5060547;28;20484;-76
2022/08/28 05:06:27;;;;;;;0.40;0.30;;;15.40;99.90;;;;;;5066147;28;20801;-76
2022/08/28 05:08:57;;;;;;;0.40;0.30;;;15.40;99.90;;;;;;5063994;28;20462;-76
2022/08/28 05:11:25;;;;;;;0.60;0.60;;;15.40;99.90;;;;;;5062448;28;20765;-76
2022/08/28 05:13:51;;;;;;;0.40;0.40;;;15.30;99.90;;;;;;5058856;28;20409;-76
2022/08/28 05:16:18;;;;;;;0.80;0.60;;;15.40;99.90;;;;;;5061104;28;20419;-76
2022/08/28 05:18:44;;;;;;;0.40;0.30;;;15.40;99.90;;;;;;5060364;28;20405;-76
2022/08/28 05:21:11;;;;;;;0.40;0.30;;;15.40;99.90;;;;;;5066169;28;20417;-75
2022/08/28 05:23:37;;;;;;;0.50;0.50;;;15.50;99.90;;;;;;5059457;28;20401;-75
2022/08/28 05:26:03;;;;;;;0.40;0.20;;;15.50;99.90;;;;;;5065863;28;20954;-76
2022/08/28 05:28:29;;;;;;;0.40;0.30;;;15.50;99.90;;;;;;5061645;28;20514;-75
2022/08/28 05:30:55;;;;;;;0.40;0.30;;;15.50;99.90;;;;;;5067999;28;20549;-75
2022/08/28 05:33:21;;;;;;;0.40;0.30;;;15.60;99.90;;;;;;5068023;28;20446;-75
2022/08/28 05:35:46;;;;;;;0.50;0.50;;;15.60;99.90;;;;;;5068644;28;20410;-76
2022/08/28 05:38:14;;;;;;;0.40;0.30;;;15.60;99.90;;;;;;5066755;28;20413;-76
2022/08/28 05:40:46;;;;;;;0.40;0.30;;;15.70;99.90;;;;;;5074168;28;20412;-75
2022/08/28 05:43:13;;;;;;;0.40;0.40;;;15.80;99.90;;;;;;5065909;28;20380;-76
2022/08/28 05:45:39;;;;;;;0.40;0.40;;;15.80;99.90;;;;;;5067313;28;20399;-76
2022/08/28 05:48:05;;;;;;;0.40;0.30;;;15.70;99.90;;;;;;5067397;28;20517;-76
2022/08/28 05:50:31;;;;;;;0.40;0.30;;;15.80;99.90;;;;;;5064704;28;20399;-76
2022/08/28 05:52:57;;;;;;;0.40;0.20;;;15.80;99.90;;;;;;5065656;28;20517;-76
2022/08/28 05:55:22;;;;;;;0.40;0.30;;;15.90;99.90;;;;;;5066310;28;20412;-76
2022/08/28 05:57:48;;;;;;;0.40;0.20;;;16.00;99.90;;;;;;5061422;28;20417;-76
2022/08/28 06:00:13;;;;;;;0.40;0.30;;;16.00;99.90;;;;;;5068225;28;20404;-76
2022/08/28 06:02:40;;;;;;;0.40;0.30;;;16.10;99.90;;;;;;5063532;28;20433;-75
2022/08/28 06:05:07;;;;;;;0.40;0.30;;;16.00;99.90;;;;;;5069071;28;20405;-76
2022/08/28 06:07:33;;;;;;;0.40;0.30;;;16.00;99.90;;;;;;5060410;28;20453;-76
2022/08/28 06:09:59;;;;;;;0.40;0.30;;;16.10;99.90;;;;;;5060279;28;20928;-75
2022/08/28 06:12:24;;;;;;;0.60;0.60;;;16.10;99.90;;;;;;5059196;28;20429;-76
2022/08/28 06:14:50;;;;;;;0.40;0.30;;;16.20;99.90;;;;;;5060221;28;20393;-75
2022/08/28 06:17:16;;;;;;;2.40;1.30;;;16.20;99.90;;;;;;5054906;28;20406;-76
2022/08/28 06:19:41;;;;;;;0.40;0.25;;;16.40;99.90;;;;;;5058848;28;20442;-76
2022/08/28 06:22:09;;;;;;;0.50;0.50;;;16.40;99.90;;;;;;5061522;28;20389;-76
2022/08/28 06:24:35;;;;;;;0.40;0.30;;;16.40;99.90;;;;;;5061422;28;20456;-75
2022/08/28 06:27:01;;;;;;;1.40;1.00;;;16.40;99.90;;;;;;5065936;28;20415;-75
2022/08/28 06:29:28;;;;;;;1.43;1.33;;;16.50;99.90;;;;;;5058544;28;20406;-76
2022/08/28 06:31:58;;;;;;;0.70;0.60;;;16.50;99.90;;;;;;5056227;28;20463;-75
2022/08/28 06:34:24;;;;;;;0.40;0.30;;;16.50;99.90;;;;;;5060103;28;20390;-76
2022/08/28 06:36:50;;;;;;;0.50;0.50;;;16.60;99.90;;;;;;5056933;28;20401;-76
2022/08/28 06:39:15;;;;;;;0.60;0.60;;;16.70;99.90;;;;;;5056539;28;20407;-76
2022/08/28 06:41:42;;;;;;;0.40;0.30;;;16.70;99.90;;;;;;5056727;28;20402;-74
2022/08/28 06:44:13;;;;;;;0.40;0.30;;;16.80;99.90;;;;;;5055990;28;20396;-74
2022/08/28 06:46:39;;;;;;;0.40;0.30;;;16.80;99.90;;;;;;5057684;28;21027;-74
2022/08/28 06:49:06;;;;;;;0.60;0.60;;;16.90;99.90;;;;;;5068936;28;20399;-74
2022/08/28 06:51:33;;;;;;;0.40;0.30;;;16.90;99.90;;;;;;5064919;28;20405;-74
2022/08/28 06:54:01;;;;;;;0.40;0.30;;;17.00;99.90;;;;;;5059615;28;20395;-74
2022/08/28 06:56:27;;;;;;;0.60;0.60;;;17.10;99.90;;;;;;5064312;28;20937;-74
2022/08/28 06:58:55;;;;;;;0.40;0.30;;;17.20;99.90;;;;;;5059280;28;20390;-74
2022/08/28 07:01:27;;;;;;;0.40;0.25;;;17.30;99.90;;;;;;5065548;28;20438;-74
2022/08/28 07:03:55;;;;;;;0.40;0.20;;;17.30;99.90;;;;;;5070832;28;20387;-74
2022/08/28 07:06:22;;;;;;;0.40;0.30;;;17.40;99.90;;;;;;5066409;28;20396;-73
2022/08/28 07:08:49;;;;;;;0.50;0.50;;;17.40;99.90;;;;;;5063599;28;20482;-73
2022/08/28 07:11:24;;;;;;;0.40;0.30;;;17.50;99.90;;;;;;5060973;28;20959;-73
2022/08/28 07:13:54;;;;;;;1.30;0.65;;;17.60;99.90;;;;;;5058643;28;20405;-74
2022/08/28 07:16:21;;;;;;;0.70;0.70;;;17.60;99.90;;;;;;5057757;28;20401;-75
2022/08/28 07:18:47;;;;;;;0.40;0.40;;;17.70;99.90;;;;;;5062162;28;20408;-76
2022/08/28 07:21:12;;;;;;;0.40;0.30;;;17.90;99.90;;;;;;5052507;28;20385;-75
2022/08/28 07:23:40;;;;;;;0.40;0.30;;;18.00;99.90;;;;;;5054683;28;20379;-76
2022/08/28 07:26:09;;;;;;;0.40;0.40;;;18.10;99.90;;;;;;5069105;28;20426;-75
2022/08/28 07:28:35;;;;;;;1.48;1.38;;;18.10;99.90;;;;;;5070291;28;20451;-76
2022/08/28 07:31:11;;;;;;;0.40;0.30;;;18.20;99.90;;;;;;5070394;28;20475;-75
2022/08/28 07:33:38;;;;;;;0.40;0.20;;;18.30;99.90;;;;;;5070276;28;20462;-76
2022/08/28 07:36:10;;;;;;;0.80;0.80;;;18.30;99.90;;;;;;5070223;28;20379;-75
2022/08/28 07:38:36;;;;;;;0.50;0.50;;;18.30;99.90;;;;;;5060427;28;20396;-76
2022/08/28 07:41:02;;;;;;;0.40;0.20;;;18.40;99.90;;;;;;5069102;28;20402;-76
2022/08/28 07:46:12;;;;;;;0.90;0.90;;;18.50;99.90;;;;;;5058559;28;20436;-76
2022/08/28 07:48:39;;;;;;;0.40;0.30;;;18.60;99.90;;;;;;5059556;28;20413;-76
2022/08/28 07:51:07;;;;;;;0.40;0.40;;;18.80;99.90;;;;;;5065659;28;20412;-77
2022/08/28 07:53:33;;;;;;;0.50;0.50;;;18.80;99.90;;;;;;5061760;28;20416;-76
2022/08/28 07:55:58;;;;;;;0.50;0.50;;;18.90;99.90;;;;;;5057709;28;20452;-78
2022/08/28 07:58:25;;;;;;;1.37;1.30;;;18.90;99.90;;;;;;5058789;28;20413;-76
2022/08/28 08:00:54;;;;;;;0.40;0.20;;;18.90;99.90;;;;;;5084679;22;20550;-77
2022/08/28 08:03:21;;;;;;;0.40;0.30;;;19.10;99.90;;;;;;5047029;28;20400;-77
2022/08/28 08:06:02;;;;;;;0.40;0.30;;;19.10;99.90;;;;;;5072130;28;20889;-77
2022/08/28 08:08:30;;;;;;;0.60;0.60;;;19.30;99.90;;;;;;5071896;28;20388;-76
2022/08/28 08:11:13;;;;;;;0.60;0.60;;;19.40;99.90;;;;;;5045070;28;20457;-76
2022/08/28 08:13:41;;;;;;;0.70;0.70;;;19.50;99.90;;;;;;5020068;28;20467;-76
2022/08/28 08:16:19;;;;;;;0.43;0.40;;;19.50;99.90;;;;;;5017839;28;20734;-76
2022/08/28 08:18:46;;;;;;;0.50;0.50;;;19.60;99.90;;;;;;5044295;28;20407;-76
2022/08/28 08:21:13;;;;;;;2.20;0.70;;;19.60;99.90;;;;;;5031186;28;20448;-76
2022/08/28 08:23:40;;;;;;;0.40;0.25;;;19.70;99.90;;;;;;5043608;28;20888;-76
2022/08/28 08:26:09;;;;;;;0.40;0.25;;;19.70;99.90;;;;;;5031110;28;20435;-76
2022/08/28 08:28:37;;;;;;;0.40;0.40;;;19.60;99.90;;;;;;5049356;28;20397;-76
2022/08/28 08:31:10;;;;;;;1.00;1.00;;;19.60;99.90;;;;;;5039346;28;20410;-76
2022/08/28 08:33:38;;;;;;;0.80;0.80;;;19.60;99.90;;;;;;5046147;28;20428;-76
2022/08/28 08:36:06;;;;;;;0.90;0.90;;;19.70;99.90;;;;;;5051826;28;20488;-77
2022/08/28 08:38:33;;;;;;;2.40;2.30;;;19.50;99.90;;;;;;5059386;28;20437;-77
2022/08/28 08:41:00;;;;;;;0.50;0.50;;;19.60;99.90;;;;;;5052772;28;20396;-76
2022/08/28 08:43:29;;;;;;;0.40;0.20;;;19.70;99.90;;;;;;5040579;28;20459;-76
2022/08/28 08:45:55;;;;;;;0.40;0.30;;;19.70;99.90;;;;;;5051745;28;20462;-76
2022/08/28 08:48:28;;;;;;;1.15;1.13;;;19.60;99.90;;;;;;5038911;28;20428;-75
2022/08/28 08:51:03;;;;;;;0.43;0.27;;;19.40;99.90;;;;;;5050915;28;20415;-74
2022/08/28 08:53:51;;;;;;;1.80;1.70;;;19.40;99.90;;;;;;5048900;28;20402;-75
2022/08/28 08:56:20;;;;;;;0.40;0.30;;;19.40;99.90;;;;;;5043193;28;20394;-77
2022/08/28 08:58:49;;;;;;;0.40;0.30;;;19.40;99.90;;;;;;5032251;28;20386;-75
2022/08/28 09:01:24;;;;;;;0.70;0.70;;;19.50;99.90;;;;;;5045829;28;20479;-76
2022/08/28 09:04:02;;;;;;;0.40;0.30;;;19.40;99.90;;;;;;5044639;28;20411;-75
2022/08/28 09:06:46;;;;;;;0.40;0.30;;;19.50;99.90;;;;;;5052318;28;20405;-76
2022/08/28 09:09:18;;;;;;;0.80;0.80;;;19.50;99.90;;;;;;5049966;28;20381;-74
2022/08/28 09:11:56;;;;;;;1.05;1.02;;;19.50;99.90;;;;;;5028890;28;20760;-75
2022/08/28 09:14:49;;;;;;;0.40;0.30;;;19.40;99.90;;;;;;5046641;28;20720;-75
2022/08/28 09:17:18;;;;;;;1.00;0.80;;;19.50;99.90;;;;;;5051239;28;20415;-76
2022/08/28 09:19:43;;;;;;;0.40;0.30;;;19.60;99.90;;;;;;5030583;28;20399;-76
2022/08/28 09:22:09;;;;;;;0.40;0.30;;;19.60;99.90;;;;;;5034938;28;20401;-77
2022/08/28 09:24:35;;;;;;;0.80;0.80;;;19.70;99.90;;;;;;5042199;28;20415;-76
2022/08/28 09:27:17;;;;;;;0.73;0.73;;;19.80;99.90;;;;;;5049210;28;20813;-76
2022/08/28 09:29:57;;;;;;;0.40;0.30;;;19.80;99.90;;;;;;5043353;28;21094;-76
2022/08/28 09:32:28;;;;;;;0.40;0.30;;;19.80;99.90;;;;;;5046300;28;20403;-76
2022/08/28 09:34:59;;;;;;;0.40;0.30;;;20.00;99.90;;;;;;5044397;28;20413;-76
2022/08/28 09:37:28;;;;;;;0.40;0.30;;;20.00;99.90;;;;;;5031422;28;21650;-76
2022/08/28 09:40:24;;;;;;;0.88;0.88;;;20.00;99.90;;;;;;5047163;28;20421;-74
2022/08/28 09:43:27;;;;;;;0.40;0.30;;;20.10;99.90;;;;;;5030765;28;20427;-78
2022/08/28 09:46:20;;;;;;;0.40;0.40;;;20.30;99.90;;;;;;5049394;28;20804;-74
2022/08/28 09:48:47;;;;;;;0.40;0.30;;;20.40;99.90;;;;;;5052658;28;20456;-76
2022/08/28 09:51:27;;;;;;;0.90;0.90;;;20.40;99.90;;;;;;5049339;28;20451;-74
2022/08/28 09:53:55;;;;;;;0.40;0.20;;;20.60;99.90;;;;;;5047668;28;20383;-75
2022/08/28 09:56:26;;;;;;;0.50;0.50;;;20.80;99.90;;;;;;5036237;28;20410;-73
2022/08/28 09:59:07;;;;;;;0.40;0.30;;;20.90;99.90;;;;;;5036475;28;21007;-75
2022/08/28 10:01:46;;;;;;;0.60;0.60;;;21.00;99.90;;;;;;5017786;28;20395;-76
2022/08/28 10:04:36;;;;;;;1.10;1.00;;;21.20;99.90;;;;;;5036301;28;20426;-75
2022/08/28 10:07:20;;;;;;;0.40;0.30;;;21.30;99.90;;;;;;5020063;28;20395;-75
2022/08/28 10:09:45;;;;;;;0.40;0.30;;;21.40;99.90;;;;;;5020436;28;20395;-74
2022/08/28 10:12:11;;;;;;;1.40;1.30;;;21.50;99.90;;;;;;5019506;28;20984;-75
2022/08/28 10:14:54;;;;;;;0.50;0.40;;;21.50;99.90;;;;;;5019106;28;20391;-75
2022/08/28 10:17:38;;;;;;;0.40;0.30;;;21.50;99.90;;;;;;5020229;28;20438;-76
2022/08/28 10:20:12;;;;;;;0.50;0.50;;;21.60;99.90;;;;;;5020952;28;20757;-76
2022/08/28 10:22:43;;;;;;;1.30;1.20;;;21.80;99.90;;;;;;5039256;28;21037;-75
2022/08/28 10:25:26;;;;;;;0.40;0.30;;;22.10;99.90;;;;;;5038394;28;20458;-75
2022/08/28 10:28:04;;;;;;;0.40;0.30;;;22.10;99.90;;;;;;5021042;28;20418;-76
2022/08/28 10:30:34;;;;;;;0.43;0.32;;;22.30;99.90;;;;;;5037741;28;20399;-77
2022/08/28 10:33:16;;;;;;;0.50;0.50;;;22.40;99.90;;;;;;5039486;28;20395;-76
2022/08/28 10:35:54;;;;;;;0.40;0.40;;;22.30;99.90;;;;;;5039666;28;20392;-76
2022/08/28 10:38:36;;;;;;;0.40;0.30;;;22.40;99.90;;;;;;5022082;28;20464;-76
2022/08/28 10:41:19;;;;;;;0.40;0.20;;;22.20;99.90;;;;;;5039356;28;20387;-76
2022/08/28 10:43:53;;;;;;;0.90;0.90;;;22.40;99.90;;;;;;5036668;28;20383;-76
2022/08/28 10:46:31;;;;;;;0.70;0.70;;;22.60;99.90;;;;;;5019658;28;20388;-74
2022/08/28 10:48:59;;;;;;;0.40;0.40;;;22.70;99.90;;;;;;5021304;28;20387;-74
2022/08/28 10:51:28;;;;;;;1.00;1.00;;;22.80;99.90;;;;;;5037358;28;20545;-76
2022/08/28 10:54:14;;;;;;;0.70;0.70;;;22.80;99.90;;;;;;5022452;28;20383;-76
2022/08/28 10:56:45;;;;;;;0.40;0.30;;;22.90;99.90;;;;;;5020632;28;20399;-76
2022/08/28 10:59:11;;;;;;;0.60;0.60;;;22.90;99.90;;;;;;5022742;28;20391;-76
2022/08/28 11:01:40;;;;;;;0.43;0.32;;;22.90;99.90;;;;;;5021978;28;20452;-77
2022/08/28 11:04:18;;;;;;;0.70;0.70;;;23.10;99.90;;;;;;5039138;28;20422;-74
2022/08/28 11:06:50;;;;;;;0.40;0.30;;;23.20;99.90;;;;;;5038322;28;20415;-76
2022/08/28 11:09:29;;;;;;;0.40;0.30;;;23.20;99.90;;;;;;5023328;28;20392;-77
2022/08/28 11:12:00;;;;;;;1.02;0.95;;;23.30;99.90;;;;;;5039683;28;20394;-76
2022/08/28 11:14:36;;;;;;;0.80;0.80;;;23.40;99.90;;;;;;5021699;28;20407;-76
2022/08/28 11:17:29;;;;;;;0.40;0.22;;;23.40;99.90;;;;;;5040784;28;20406;-77
2022/08/28 11:20:21;;;;;;;0.40;0.30;;;23.80;99.90;;;;;;5039204;28;20517;-76
2022/08/28 11:23:09;;;;;;;0.40;0.30;;;24.30;99.90;;;;;;5037690;28;20376;-76
2022/08/28 11:25:53;;;;;;;0.68;0.68;;;24.60;99.90;;;;;;5036734;28;20462;-76
2022/08/28 11:28:25;;;;;;;0.57;0.52;;;24.60;99.90;;;;;;5044526;28;20397;-78
2022/08/28 11:30:57;;;;;;;0.40;0.40;;;24.20;99.90;;;;;;5038228;28;20399;-77
2022/08/28 11:33:47;;;;;;;1.90;0.90;;;23.90;99.90;;;;;;5049098;28;20404;-77
2022/08/28 11:36:18;;;;;;;0.40;0.30;;;23.80;99.90;;;;;;5044450;28;20381;-77
2022/08/28 11:38:44;;;;;;;0.60;0.60;;;24.30;99.90;;;;;;5050362;28;20740;-76
2022/08/28 11:41:23;;;;;;;1.30;1.20;;;25.20;99.90;;;;;;5048497;28;20400;-77
2022/08/28 11:44:09;;;;;;;0.40;0.30;;;25.70;99.90;;;;;;5038320;28;20383;-76
2022/08/28 11:46:37;;;;;;;0.40;0.40;;;26.60;99.90;;;;;;5021702;28;20483;-79
2022/08/28 11:49:27;;;;;;;0.40;0.30;;;26.90;99.90;;;;;;5038127;28;20406;-76
2022/08/28 11:52:21;;;;;;;0.40;0.30;;;27.50;99.90;;;;;;5038808;28;20409;-76
2022/08/28 11:54:55;;;;;;;0.40;0.30;;;28.20;99.90;;;;;;5037968;28;20437;-77
2022/08/28 11:57:27;;;;;;;0.40;0.22;;;27.40;99.90;;;;;;5029850;28;20411;-77
2022/08/28 12:00:05;;;;;;;0.40;0.20;;;28.00;99.20;;;;;;5045857;28;20406;-76
2022/08/28 12:02:36;;;;;;;0.40;0.30;;;28.40;99.50;;;;;;5033317;28;20474;-77
2022/08/28 12:05:08;;;;;;;0.40;0.20;;;28.00;98.50;;;;;;5045625;28;20385;-77
2022/08/28 12:07:40;;;;;;;0.40;0.40;;;27.70;96.90;;;;;;5030529;28;20413;-76
2022/08/28 12:10:26;;;;;;;0.50;0.50;;;28.00;98.40;;;;;;5046859;28;20405;-77
2022/08/28 12:13:32;;;;;;;0.40;0.20;;;27.40;94.40;;;;;;5037604;28;20463;-76
2022/08/28 12:16:06;;;;;;;0.40;0.20;;;28.00;95.30;;;;;;5039465;28;20415;-78
2022/08/28 12:18:37;;;;;;;0.40;0.20;;;28.60;93.80;;;;;;5037834;28;20960;-76
2022/08/28 12:21:05;;;;;;;0.40;0.30;;;28.70;96.00;;;;;;5043025;28;20854;-76
2022/08/28 12:23:35;;;;;;;0.40;0.20;;;28.70;92.40;;;;;;5038968;28;20804;-76
2022/08/28 12:26:24;;;;;;;0.40;0.20;;;28.70;90.20;;;;;;5038619;28;20377;-76
2022/08/28 12:28:56;;;;;;;0.40;0.30;;;28.20;94.00;;;;;;5039103;28;20406;-76
2022/08/28 12:34:46;;;;;;;0.40;0.40;;;27.00;92.90;;;;;;5039752;28;21059;-76
2022/08/28 12:37:44;;;;;;;0.40;0.20;;;28.30;93.70;;;;;;5042443;28;20501;-76
2022/08/28 12:40:10;;;;;;;0.50;0.50;;;27.40;92.60;;;;;;5020757;28;20497;-76
2022/08/28 12:42:43;;;;;;;0.60;0.60;;;27.60;97.00;;;;;;5038531;28;20403;-78
2022/08/28 12:45:14;;;;;;;0.40;0.20;;;28.60;95.60;;;;;;5036437;28;20431;-77
2022/08/28 12:47:44;;;;;;;0.40;0.20;;;27.90;96.40;;;;;;5039591;28;20766;-75
2022/08/28 12:50:26;;;;;;;0.40;0.20;;;28.10;98.20;;;;;;5044224;28;20416;-77
2022/08/28 12:52:55;;;;;;;0.50;0.50;;;28.60;98.20;;;;;;5039415;28;20389;-78
2022/08/28 12:55:22;;;;;;;0.40;0.30;;;28.10;99.90;;;;;;5043133;28;20405;-78
2022/08/28 12:57:48;;;;;;;0.40;0.30;;;28.00;99.90;;;;;;5019368;28;20430;-79
2022/08/28 13:00:20;;;;;;;0.90;0.70;;;28.30;99.80;;;;;;5046912;28;20401;-77
2022/08/28 13:02:46;;;;;;;0.40;0.20;;;28.90;98.10;;;;;;5044061;28;20369;-74
2022/08/28 13:05:28;;;;;;;0.40;0.20;;;29.20;94.70;;;;;;5028056;28;20412;-74
2022/08/28 13:07:54;;;;;;;1.10;0.80;;;28.00;97.60;;;;;;5024706;28;20489;-75
2022/08/28 13:10:25;;;;;;;0.40;0.30;;;28.20;97.20;;;;;;5048085;28;21411;-74
2022/08/28 13:13:05;;;;;;;0.40;0.20;;;27.90;95.70;;;;;;5044379;28;20394;-77
2022/08/28 13:16:00;;;;;;;0.40;0.30;;;28.00;95.40;;;;;;5049182;28;20801;-78